sensor_id;sensor_type;location;lat;lon;timestamp;temperature;humidity
429;DHT22;201;48.758;9.290;2024-03-02T00:02:16;6.00;9.10
429;DHT22;201;48.758;9.290;2024-03-02T00:04:44;6.10;9.00
429;DHT22;201;48.758;9.290;2024-03-02T00:07:10;6.00;7.90
429;DHT22;201;48.758;9.290;2024-03-02T00:09:39;6.00;7.60
429;DHT22;201;48.758;9.290;2024-03-02T00:12:05;6.00;7.70
429;DHT22;201;48.758;9.290;2024-03-02T00:14:30;6.10;7.60
429;DHT22;201;48.758;9.290;2024-03-02T00:16:56;6.10;7.60
429;DHT22;201;48.758;9.290;2024-03-02T00:19:22;6.10;7.80
429;DHT22;201;48.758;9.290;2024-03-02T00:21:48;6.10;7.70
429;DHT22;201;48.758;9.290;2024-03-02T00:24:34;6.10;7.60
429;DHT22;201;48.758;9.290;2024-03-02T00:27:01;6.10;7.60
429;DHT22;201;48.758;9.290;2024-03-02T00:29:29;6.10;7.60
429;DHT22;201;48.758;9.290;2024-03-02T00:31:55;6.10;7.60
429;DHT22;201;48.758;9.290;2024-03-02T00:34:21;6.10;7.60
429;DHT22;201;48.758;9.290;2024-03-02T00:36:47;6.10;7.60
429;DHT22;201;48.758;9.290;2024-03-02T00:39:16;6.10;7.60
429;DHT22;201;48.758;9.290;2024-03-02T00:41:43;6.10;7.60
429;DHT22;201;48.758;9.290;2024-03-02T00:44:16;6.00;7.60
429;DHT22;201;48.758;9.290;2024-03-02T00:46:43;6.00;7.60
429;DHT22;201;48.758;9.290;2024-03-02T00:49:12;6.00;7.50
429;DHT22;201;48.758;9.290;2024-03-02T00:51:39;6.00;7.60
429;DHT22;201;48.758;9.290;2024-03-02T00:54:07;5.90;7.50
429;DHT22;201;48.758;9.290;2024-03-02T00:56:33;5.90;7.50
429;DHT22;201;48.758;9.290;2024-03-02T00:59:00;5.90;7.50
429;DHT22;201;48.758;9.290;2024-03-02T01:01:25;5.90;8.00
429;DHT22;201;48.758;9.290;2024-03-02T01:03:52;5.80;7.40
429;DHT22;201;48.758;9.290;2024-03-02T01:06:18;5.80;7.80
429;DHT22;201;48.758;9.290;2024-03-02T01:08:44;5.90;7.50
429;DHT22;201;48.758;9.290;2024-03-02T01:11:10;5.80;7.40
429;DHT22;201;48.758;9.290;2024-03-02T01:13:35;5.80;8.00
429;DHT22;201;48.758;9.290;2024-03-02T01:16:01;5.80;7.40
429;DHT22;201;48.758;9.290;2024-03-02T01:18:27;5.80;7.60
429;DHT22;201;48.758;9.290;2024-03-02T01:20:53;5.80;7.70
429;DHT22;201;48.758;9.290;2024-03-02T01:23:24;5.80;7.70
429;DHT22;201;48.758;9.290;2024-03-02T01:25:51;5.80;7.80
429;DHT22;201;48.758;9.290;2024-03-02T01:28:17;5.80;7.70
429;DHT22;201;48.758;9.290;2024-03-02T01:30:44;5.80;7.40
429;DHT22;201;48.758;9.290;2024-03-02T01:33:09;5.80;7.40
429;DHT22;201;48.758;9.290;2024-03-02T01:35:35;5.80;7.60
429;DHT22;201;48.758;9.290;2024-03-02T01:38:01;5.70;7.70
429;DHT22;201;48.758;9.290;2024-03-02T01:40:26;5.70;7.90
429;DHT22;201;48.758;9.290;2024-03-02T01:42:53;5.70;8.10
429;DHT22;201;48.758;9.290;2024-03-02T01:45:23;5.70;8.20
429;DHT22;201;48.758;9.290;2024-03-02T01:47:49;5.70;8.30
429;DHT22;201;48.758;9.290;2024-03-02T01:50:15;5.60;8.50
429;DHT22;201;48.758;9.290;2024-03-02T01:52:41;5.60;8.70
429;DHT22;201;48.758;9.290;2024-03-02T01:55:07;5.60;8.60
429;DHT22;201;48.758;9.290;2024-03-02T01:57:34;5.60;8.60
429;DHT22;201;48.758;9.290;2024-03-02T02:00:00;5.60;8.60
429;DHT22;201;48.758;9.290;2024-03-02T02:02:25;5.60;8.70
429;DHT22;201;48.758;9.290;2024-03-02T02:04:51;5.60;8.70
429;DHT22;201;48.758;9.290;2024-03-02T02:07:16;5.60;8.70
429;DHT22;201;48.758;9.290;2024-03-02T02:09:42;5.60;8.70
429;DHT22;201;48.758;9.290;2024-03-02T02:12:09;5.60;8.70
429;DHT22;201;48.758;9.290;2024-03-02T02:14:34;5.60;8.70
429;DHT22;201;48.758;9.290;2024-03-02T02:17:00;5.60;8.90
429;DHT22;201;48.758;9.290;2024-03-02T02:19:25;5.60;8.90
429;DHT22;201;48.758;9.290;2024-03-02T02:21:51;5.50;8.70
429;DHT22;201;48.758;9.290;2024-03-02T02:24:16;5.50;8.80
429;DHT22;201;48.758;9.290;2024-03-02T02:26:42;5.50;8.80
429;DHT22;201;48.758;9.290;2024-03-02T02:29:07;5.50;8.90
429;DHT22;201;48.758;9.290;2024-03-02T02:31:40;5.50;8.90
429;DHT22;201;48.758;9.290;2024-03-02T02:34:06;5.40;9.00
429;DHT22;201;48.758;9.290;2024-03-02T02:36:38;5.30;9.30
429;DHT22;201;48.758;9.290;2024-03-02T02:39:05;5.30;9.60
429;DHT22;201;48.758;9.290;2024-03-02T02:41:32;5.30;9.80
429;DHT22;201;48.758;9.290;2024-03-02T02:43:57;5.30;10.10
429;DHT22;201;48.758;9.290;2024-03-02T02:46:23;5.30;10.30
429;DHT22;201;48.758;9.290;2024-03-02T02:48:49;5.30;10.30
429;DHT22;201;48.758;9.290;2024-03-02T02:51:14;5.30;10.30
429;DHT22;201;48.758;9.290;2024-03-02T02:53:40;5.20;10.30
429;DHT22;201;48.758;9.290;2024-03-02T02:56:06;5.20;10.50
429;DHT22;201;48.758;9.290;2024-03-02T02:58:32;5.20;10.70
429;DHT22;201;48.758;9.290;2024-03-02T03:00:57;5.20;10.70
429;DHT22;201;48.758;9.290;2024-03-02T03:03:23;5.10;11.00
429;DHT22;201;48.758;9.290;2024-03-02T03:05:48;5.00;11.20
429;DHT22;201;48.758;9.290;2024-03-02T03:08:14;5.00;11.50
429;DHT22;201;48.758;9.290;2024-03-02T03:10:41;5.00;11.60
429;DHT22;201;48.758;9.290;2024-03-02T03:13:06;5.00;11.90
429;DHT22;201;48.758;9.290;2024-03-02T03:15:34;5.00;12.00
429;DHT22;201;48.758;9.290;2024-03-02T03:18:00;5.00;12.10
429;DHT22;201;48.758;9.290;2024-03-02T03:20:25;5.00;12.20
429;DHT22;201;48.758;9.290;2024-03-02T03:22:51;5.00;12.30
429;DHT22;201;48.758;9.290;2024-03-02T03:25:16;5.10;12.40
429;DHT22;201;48.758;9.290;2024-03-02T03:27:42;5.10;12.40
429;DHT22;201;48.758;9.290;2024-03-02T03:30:08;5.10;12.30
429;DHT22;201;48.758;9.290;2024-03-02T03:32:33;5.10;12.30
429;DHT22;201;48.758;9.290;2024-03-02T03:34:59;5.10;12.20
429;DHT22;201;48.758;9.290;2024-03-02T03:37:24;5.10;12.20
429;DHT22;201;48.758;9.290;2024-03-02T03:39:52;5.10;12.10
429;DHT22;201;48.758;9.290;2024-03-02T03:42:17;5.00;12.00
429;DHT22;201;48.758;9.290;2024-03-02T03:44:43;4.90;12.30
429;DHT22;201;48.758;9.290;2024-03-02T03:47:08;4.90;12.60
429;DHT22;201;48.758;9.290;2024-03-02T03:49:34;4.80;12.90
429;DHT22;201;48.758;9.290;2024-03-02T03:51:59;4.70;13.20
429;DHT22;201;48.758;9.290;2024-03-02T03:54:25;4.60;13.50
429;DHT22;201;48.758;9.290;2024-03-02T03:56:51;4.60;14.00
429;DHT22;201;48.758;9.290;2024-03-02T03:59:16;4.50;14.50
429;DHT22;201;48.758;9.290;2024-03-02T04:01:42;4.50;15.00
429;DHT22;201;48.758;9.290;2024-03-02T04:04:07;4.40;15.00
429;DHT22;201;48.758;9.290;2024-03-02T04:06:33;4.40;15.00
429;DHT22;201;48.758;9.290;2024-03-02T04:08:58;4.40;15.00
429;DHT22;201;48.758;9.290;2024-03-02T04:11:24;4.30;14.90
429;DHT22;201;48.758;9.290;2024-03-02T04:13:49;4.30;14.90
429;DHT22;201;48.758;9.290;2024-03-02T04:16:15;4.30;15.50
429;DHT22;201;48.758;9.290;2024-03-02T04:18:40;4.30;15.80
429;DHT22;201;48.758;9.290;2024-03-02T04:21:06;4.20;16.00
429;DHT22;201;48.758;9.290;2024-03-02T04:23:31;4.20;16.30
429;DHT22;201;48.758;9.290;2024-03-02T04:25:57;4.20;16.50
429;DHT22;201;48.758;9.290;2024-03-02T04:28:22;4.20;16.70
429;DHT22;201;48.758;9.290;2024-03-02T04:30:48;4.20;16.90
429;DHT22;201;48.758;9.290;2024-03-02T04:33:13;4.20;17.10
429;DHT22;201;48.758;9.290;2024-03-02T04:35:39;4.20;17.30
429;DHT22;201;48.758;9.290;2024-03-02T04:38:04;4.10;17.40
429;DHT22;201;48.758;9.290;2024-03-02T04:40:30;4.10;17.40
429;DHT22;201;48.758;9.290;2024-03-02T04:42:56;4.10;17.60
429;DHT22;201;48.758;9.290;2024-03-02T04:45:21;4.10;17.70
429;DHT22;201;48.758;9.290;2024-03-02T04:47:47;4.00;17.80
429;DHT22;201;48.758;9.290;2024-03-02T04:50:12;4.10;18.00
429;DHT22;201;48.758;9.290;2024-03-02T04:52:38;4.00;18.10
429;DHT22;201;48.758;9.290;2024-03-02T04:55:03;4.00;18.20
429;DHT22;201;48.758;9.290;2024-03-02T04:57:42;4.00;18.40
429;DHT22;201;48.758;9.290;2024-03-02T05:00:08;4.00;18.50
429;DHT22;201;48.758;9.290;2024-03-02T05:02:34;4.00;18.70
429;DHT22;201;48.758;9.290;2024-03-02T05:05:00;4.00;18.80
429;DHT22;201;48.758;9.290;2024-03-02T05:07:26;4.00;18.80
429;DHT22;201;48.758;9.290;2024-03-02T05:09:52;4.00;18.80
429;DHT22;201;48.758;9.290;2024-03-02T05:12:17;3.90;18.80
429;DHT22;201;48.758;9.290;2024-03-02T05:15:06;3.90;18.80
429;DHT22;201;48.758;9.290;2024-03-02T05:17:32;3.90;18.80
429;DHT22;201;48.758;9.290;2024-03-02T05:19:58;3.90;19.00
429;DHT22;201;48.758;9.290;2024-03-02T05:22:23;3.90;19.20
429;DHT22;201;48.758;9.290;2024-03-02T05:24:49;3.90;19.40
429;DHT22;201;48.758;9.290;2024-03-02T05:27:14;3.90;19.60
429;DHT22;201;48.758;9.290;2024-03-02T05:29:40;3.90;19.70
429;DHT22;201;48.758;9.290;2024-03-02T05:32:06;3.80;19.70
429;DHT22;201;48.758;9.290;2024-03-02T05:34:31;3.80;19.70
429;DHT22;201;48.758;9.290;2024-03-02T05:36:58;3.80;19.70
429;DHT22;201;48.758;9.290;2024-03-02T05:39:23;3.70;20.20
429;DHT22;201;48.758;9.290;2024-03-02T05:41:49;3.60;19.70
429;DHT22;201;48.758;9.290;2024-03-02T05:44:14;3.50;19.70
429;DHT22;201;48.758;9.290;2024-03-02T05:46:41;3.50;20.40
429;DHT22;201;48.758;9.290;2024-03-02T05:49:06;3.50;20.10
429;DHT22;201;48.758;9.290;2024-03-02T05:51:33;3.50;20.30
429;DHT22;201;48.758;9.290;2024-03-02T05:53:58;3.40;20.20
429;DHT22;201;48.758;9.290;2024-03-02T05:56:24;3.40;20.30
429;DHT22;201;48.758;9.290;2024-03-02T05:58:49;3.30;20.30
429;DHT22;201;48.758;9.290;2024-03-02T06:01:34;3.40;20.50
429;DHT22;201;48.758;9.290;2024-03-02T06:03:59;3.30;20.50
429;DHT22;201;48.758;9.290;2024-03-02T06:06:25;3.30;20.60
429;DHT22;201;48.758;9.290;2024-03-02T06:08:51;3.30;20.70
429;DHT22;201;48.758;9.290;2024-03-02T06:11:17;3.30;20.80
429;DHT22;201;48.758;9.290;2024-03-02T06:13:42;3.30;20.90
429;DHT22;201;48.758;9.290;2024-03-02T06:16:08;3.30;21.00
429;DHT22;201;48.758;9.290;2024-03-02T06:18:34;3.40;21.10
429;DHT22;201;48.758;9.290;2024-03-02T06:20:59;3.40;21.20
429;DHT22;201;48.758;9.290;2024-03-02T06:23:26;3.50;21.40
429;DHT22;201;48.758;9.290;2024-03-02T06:25:52;3.50;21.40
429;DHT22;201;48.758;9.290;2024-03-02T06:28:17;3.60;21.60
429;DHT22;201;48.758;9.290;2024-03-02T06:30:43;3.70;21.80
429;DHT22;201;48.758;9.290;2024-03-02T06:33:09;3.70;21.70
429;DHT22;201;48.758;9.290;2024-03-02T06:35:35;3.80;21.60
429;DHT22;201;48.758;9.290;2024-03-02T06:38:01;3.80;21.50
429;DHT22;201;48.758;9.290;2024-03-02T06:40:26;3.80;21.50
429;DHT22;201;48.758;9.290;2024-03-02T06:42:52;3.80;21.50
429;DHT22;201;48.758;9.290;2024-03-02T06:45:17;3.90;21.60
429;DHT22;201;48.758;9.290;2024-03-02T06:47:43;3.90;21.40
429;DHT22;201;48.758;9.290;2024-03-02T06:50:09;3.90;21.30
429;DHT22;201;48.758;9.290;2024-03-02T06:52:35;3.90;21.10
429;DHT22;201;48.758;9.290;2024-03-02T06:55:00;3.90;20.80
429;DHT22;201;48.758;9.290;2024-03-02T06:57:26;4.00;20.80
429;DHT22;201;48.758;9.290;2024-03-02T06:59:51;4.10;21.00
429;DHT22;201;48.758;9.290;2024-03-02T07:02:20;4.20;21.10
429;DHT22;201;48.758;9.290;2024-03-02T07:04:46;4.40;21.20
429;DHT22;201;48.758;9.290;2024-03-02T07:07:12;4.50;21.10
429;DHT22;201;48.758;9.290;2024-03-02T07:09:38;4.60;20.60
429;DHT22;201;48.758;9.290;2024-03-02T07:12:03;4.70;20.30
429;DHT22;201;48.758;9.290;2024-03-02T07:14:29;4.80;19.70
429;DHT22;201;48.758;9.290;2024-03-02T07:17:14;4.90;18.70
429;DHT22;201;48.758;9.290;2024-03-02T07:19:40;4.90;17.70
429;DHT22;201;48.758;9.290;2024-03-02T07:22:08;5.00;16.60
429;DHT22;201;48.758;9.290;2024-03-02T07:24:41;5.00;15.40
429;DHT22;201;48.758;9.290;2024-03-02T07:27:07;5.20;15.50
429;DHT22;201;48.758;9.290;2024-03-02T07:29:33;5.30;14.30
429;DHT22;201;48.758;9.290;2024-03-02T07:31:59;5.40;13.40
429;DHT22;201;48.758;9.290;2024-03-02T07:34:24;5.60;12.40
429;DHT22;201;48.758;9.290;2024-03-02T07:36:49;5.80;11.70
429;DHT22;201;48.758;9.290;2024-03-02T07:39:15;6.10;10.70
429;DHT22;201;48.758;9.290;2024-03-02T07:41:41;6.30;9.60
429;DHT22;201;48.758;9.290;2024-03-02T07:44:07;6.50;7.90
429;DHT22;201;48.758;9.290;2024-03-02T07:46:32;6.70;8.10
429;DHT22;201;48.758;9.290;2024-03-02T07:48:58;6.90;6.00
429;DHT22;201;48.758;9.290;2024-03-02T07:51:24;7.10;4.30
429;DHT22;201;48.758;9.290;2024-03-02T07:53:49;7.30;3.60
429;DHT22;201;48.758;9.290;2024-03-02T07:56:15;7.50;3.40
429;DHT22;201;48.758;9.290;2024-03-02T07:58:47;7.70;1.40
429;DHT22;201;48.758;9.290;2024-03-02T08:01:14;7.90;1.00
429;DHT22;201;48.758;9.290;2024-03-02T08:03:40;7.90;1.00
429;DHT22;201;48.758;9.290;2024-03-02T08:06:05;8.00;1.00
429;DHT22;201;48.758;9.290;2024-03-02T08:08:31;7.80;1.00
429;DHT22;201;48.758;9.290;2024-03-02T08:10:57;7.60;1.00
429;DHT22;201;48.758;9.290;2024-03-02T08:13:22;7.50;1.00
429;DHT22;201;48.758;9.290;2024-03-02T08:15:48;7.60;1.00
429;DHT22;201;48.758;9.290;2024-03-02T08:18:13;7.50;1.00
429;DHT22;201;48.758;9.290;2024-03-02T08:20:40;7.40;1.00
429;DHT22;201;48.758;9.290;2024-03-02T08:23:06;7.40;1.00
429;DHT22;201;48.758;9.290;2024-03-02T08:25:32;7.50;1.00
429;DHT22;201;48.758;9.290;2024-03-02T08:27:57;7.50;1.00
429;DHT22;201;48.758;9.290;2024-03-02T08:30:23;7.60;1.00
429;DHT22;201;48.758;9.290;2024-03-02T08:32:48;7.70;1.00
429;DHT22;201;48.758;9.290;2024-03-02T08:35:14;7.80;1.00
429;DHT22;201;48.758;9.290;2024-03-02T08:37:41;7.80;1.00
429;DHT22;201;48.758;9.290;2024-03-02T08:40:08;7.80;1.00
429;DHT22;201;48.758;9.290;2024-03-02T08:42:33;7.80;1.00
429;DHT22;201;48.758;9.290;2024-03-02T08:45:00;7.90;1.00
429;DHT22;201;48.758;9.290;2024-03-02T08:47:28;8.10;1.00
429;DHT22;201;48.758;9.290;2024-03-02T08:53:04;8.40;1.00
429;DHT22;201;48.758;9.290;2024-03-02T08:55:30;8.50;1.00
429;DHT22;201;48.758;9.290;2024-03-02T08:57:55;8.60;1.00
429;DHT22;201;48.758;9.290;2024-03-02T09:00:22;8.70;1.00
429;DHT22;201;48.758;9.290;2024-03-02T09:02:48;8.70;1.00
429;DHT22;201;48.758;9.290;2024-03-02T09:05:13;8.90;1.00
429;DHT22;201;48.758;9.290;2024-03-02T09:07:39;9.20;1.00
429;DHT22;201;48.758;9.290;2024-03-02T09:10:08;9.40;1.00
429;DHT22;201;48.758;9.290;2024-03-02T09:12:34;9.90;1.00
429;DHT22;201;48.758;9.290;2024-03-02T09:15:00;11.50;1.00
429;DHT22;201;48.758;9.290;2024-03-02T09:17:26;14.50;1.00
429;DHT22;201;48.758;9.290;2024-03-02T09:19:52;18.00;1.00
429;DHT22;201;48.758;9.290;2024-03-02T09:22:18;20.90;1.00
429;DHT22;201;48.758;9.290;2024-03-02T09:24:44;23.50;1.00
429;DHT22;201;48.758;9.290;2024-03-02T09:27:09;25.00;1.00
429;DHT22;201;48.758;9.290;2024-03-02T09:29:35;26.80;1.00
429;DHT22;201;48.758;9.290;2024-03-02T09:32:00;26.90;1.00
429;DHT22;201;48.758;9.290;2024-03-02T09:34:26;27.10;1.00
429;DHT22;201;48.758;9.290;2024-03-02T09:36:51;26.10;1.00
429;DHT22;201;48.758;9.290;2024-03-02T09:39:17;25.50;1.00
429;DHT22;201;48.758;9.290;2024-03-02T09:41:43;24.70;1.00
429;DHT22;201;48.758;9.290;2024-03-02T09:44:09;25.70;1.00
429;DHT22;201;48.758;9.290;2024-03-02T09:46:34;26.40;1.00
429;DHT22;201;48.758;9.290;2024-03-02T09:49:02;27.90;1.00
429;DHT22;201;48.758;9.290;2024-03-02T09:51:27;27.40;1.00
429;DHT22;201;48.758;9.290;2024-03-02T09:53:54;27.50;1.00
429;DHT22;201;48.758;9.290;2024-03-02T09:56:21;28.70;1.00
429;DHT22;201;48.758;9.290;2024-03-02T09:58:47;29.20;1.00
429;DHT22;201;48.758;9.290;2024-03-02T10:01:12;29.10;1.00
429;DHT22;201;48.758;9.290;2024-03-02T10:03:38;28.30;1.00
429;DHT22;201;48.758;9.290;2024-03-02T10:06:24;28.70;1.00
429;DHT22;201;48.758;9.290;2024-03-02T10:08:50;27.70;1.00
429;DHT22;201;48.758;9.290;2024-03-02T10:11:29;26.50;1.00
429;DHT22;201;48.758;9.290;2024-03-02T10:14:10;26.80;1.00
429;DHT22;201;48.758;9.290;2024-03-02T10:16:37;27.90;1.00
429;DHT22;201;48.758;9.290;2024-03-02T10:19:20;29.10;1.00
429;DHT22;201;48.758;9.290;2024-03-02T10:21:50;30.50;1.00
429;DHT22;201;48.758;9.290;2024-03-02T10:24:17;31.20;1.00
429;DHT22;201;48.758;9.290;2024-03-02T10:26:42;30.20;1.00
429;DHT22;201;48.758;9.290;2024-03-02T10:29:11;29.80;1.00
429;DHT22;201;48.758;9.290;2024-03-02T10:31:42;28.40;1.00
429;DHT22;201;48.758;9.290;2024-03-02T10:34:09;27.10;1.00
429;DHT22;201;48.758;9.290;2024-03-02T10:36:36;26.10;1.00
429;DHT22;201;48.758;9.290;2024-03-02T10:39:06;24.20;1.00
429;DHT22;201;48.758;9.290;2024-03-02T10:41:36;22.90;1.00
429;DHT22;201;48.758;9.290;2024-03-02T10:44:03;21.90;1.00
429;DHT22;201;48.758;9.290;2024-03-02T10:46:31;21.00;1.00
429;DHT22;201;48.758;9.290;2024-03-02T10:48:57;20.30;1.00
429;DHT22;201;48.758;9.290;2024-03-02T10:51:26;19.30;1.00
429;DHT22;201;48.758;9.290;2024-03-02T10:53:53;18.50;1.00
429;DHT22;201;48.758;9.290;2024-03-02T10:56:31;18.00;1.00
429;DHT22;201;48.758;9.290;2024-03-02T10:59:16;17.60;1.00
429;DHT22;201;48.758;9.290;2024-03-02T11:01:47;17.20;1.00
429;DHT22;201;48.758;9.290;2024-03-02T11:04:13;17.00;1.00
429;DHT22;201;48.758;9.290;2024-03-02T11:06:44;16.90;1.00
429;DHT22;201;48.758;9.290;2024-03-02T11:09:13;16.50;1.00
429;DHT22;201;48.758;9.290;2024-03-02T11:11:43;16.30;1.00
429;DHT22;201;48.758;9.290;2024-03-02T11:14:17;16.30;1.00
429;DHT22;201;48.758;9.290;2024-03-02T11:16:47;16.20;1.00
429;DHT22;201;48.758;9.290;2024-03-02T11:19:13;16.30;1.00
429;DHT22;201;48.758;9.290;2024-03-02T11:21:40;16.40;1.00
429;DHT22;201;48.758;9.290;2024-03-02T11:26:47;16.60;1.00
429;DHT22;201;48.758;9.290;2024-03-02T11:32:01;16.60;1.00
429;DHT22;201;48.758;9.290;2024-03-02T11:34:31;16.60;1.00
429;DHT22;201;48.758;9.290;2024-03-02T11:36:58;16.70;1.00
429;DHT22;201;48.758;9.290;2024-03-02T11:39:25;16.80;1.00
429;DHT22;201;48.758;9.290;2024-03-02T11:41:51;16.90;1.00
429;DHT22;201;48.758;9.290;2024-03-02T11:44:16;16.90;1.00
429;DHT22;201;48.758;9.290;2024-03-02T11:46:45;17.00;1.00
429;DHT22;201;48.758;9.290;2024-03-02T11:49:14;17.10;1.00
429;DHT22;201;48.758;9.290;2024-03-02T11:51:54;17.30;1.00
429;DHT22;201;48.758;9.290;2024-03-02T11:54:26;17.30;1.00
429;DHT22;201;48.758;9.290;2024-03-02T11:56:53;17.30;1.00
429;DHT22;201;48.758;9.290;2024-03-02T11:59:20;17.30;1.00
429;DHT22;201;48.758;9.290;2024-03-02T12:01:47;17.20;1.00
429;DHT22;201;48.758;9.290;2024-03-02T12:04:13;17.40;1.00
429;DHT22;201;48.758;9.290;2024-03-02T12:06:39;17.50;1.00
429;DHT22;201;48.758;9.290;2024-03-02T12:09:05;17.40;1.00
429;DHT22;201;48.758;9.290;2024-03-02T12:11:30;17.30;1.00
429;DHT22;201;48.758;9.290;2024-03-02T12:13:55;17.30;1.00
429;DHT22;201;48.758;9.290;2024-03-02T12:16:25;17.20;1.00
429;DHT22;201;48.758;9.290;2024-03-02T12:18:51;17.10;1.00
429;DHT22;201;48.758;9.290;2024-03-02T12:21:16;17.20;1.00
429;DHT22;201;48.758;9.290;2024-03-02T12:23:42;17.10;1.00
429;DHT22;201;48.758;9.290;2024-03-02T12:26:08;17.20;1.00
429;DHT22;201;48.758;9.290;2024-03-02T12:28:34;17.40;1.00
429;DHT22;201;48.758;9.290;2024-03-02T12:30:59;17.70;1.00
429;DHT22;201;48.758;9.290;2024-03-02T12:33:25;17.50;1.00
429;DHT22;201;48.758;9.290;2024-03-02T12:35:52;17.70;1.00
429;DHT22;201;48.758;9.290;2024-03-02T12:38:18;17.80;1.00
429;DHT22;201;48.758;9.290;2024-03-02T12:40:44;17.90;1.00
429;DHT22;201;48.758;9.290;2024-03-02T12:43:12;18.10;1.00
429;DHT22;201;48.758;9.290;2024-03-02T12:45:38;18.10;1.00
429;DHT22;201;48.758;9.290;2024-03-02T12:48:04;17.90;1.00
429;DHT22;201;48.758;9.290;2024-03-02T12:50:30;17.70;1.00
429;DHT22;201;48.758;9.290;2024-03-02T12:52:56;17.90;1.00
429;DHT22;201;48.758;9.290;2024-03-02T12:55:22;18.00;1.00
429;DHT22;201;48.758;9.290;2024-03-02T12:57:52;18.20;1.00
429;DHT22;201;48.758;9.290;2024-03-02T13:00:19;18.10;1.00
429;DHT22;201;48.758;9.290;2024-03-02T13:02:46;18.20;1.00
429;DHT22;201;48.758;9.290;2024-03-02T13:05:11;18.40;1.00
429;DHT22;201;48.758;9.290;2024-03-02T13:07:38;18.50;1.00
429;DHT22;201;48.758;9.290;2024-03-02T13:10:04;18.50;1.00
429;DHT22;201;48.758;9.290;2024-03-02T13:12:30;18.60;1.00
429;DHT22;201;48.758;9.290;2024-03-02T13:14:58;18.50;1.00
429;DHT22;201;48.758;9.290;2024-03-02T13:17:28;18.50;1.00
429;DHT22;201;48.758;9.290;2024-03-02T13:19:57;18.50;1.00
429;DHT22;201;48.758;9.290;2024-03-02T13:22:23;18.60;1.00
429;DHT22;201;48.758;9.290;2024-03-02T13:24:50;18.60;1.00
429;DHT22;201;48.758;9.290;2024-03-02T13:27:15;18.40;1.00
429;DHT22;201;48.758;9.290;2024-03-02T13:29:42;18.40;1.00
429;DHT22;201;48.758;9.290;2024-03-02T13:32:07;18.30;1.00
429;DHT22;201;48.758;9.290;2024-03-02T13:34:35;18.40;1.00
429;DHT22;201;48.758;9.290;2024-03-02T13:37:00;18.30;1.00
429;DHT22;201;48.758;9.290;2024-03-02T13:39:27;18.20;1.00
429;DHT22;201;48.758;9.290;2024-03-02T13:41:52;18.30;1.00
429;DHT22;201;48.758;9.290;2024-03-02T13:44:22;18.10;1.00
429;DHT22;201;48.758;9.290;2024-03-02T13:46:48;18.10;1.00
429;DHT22;201;48.758;9.290;2024-03-02T13:49:14;18.10;1.00
429;DHT22;201;48.758;9.290;2024-03-02T13:51:40;18.00;1.00
429;DHT22;201;48.758;9.290;2024-03-02T13:54:05;18.10;1.00
429;DHT22;201;48.758;9.290;2024-03-02T13:56:31;18.20;1.00
429;DHT22;201;48.758;9.290;2024-03-02T13:58:58;18.30;1.00
429;DHT22;201;48.758;9.290;2024-03-02T14:01:24;18.40;1.00
429;DHT22;201;48.758;9.290;2024-03-02T14:03:50;18.40;1.00
429;DHT22;201;48.758;9.290;2024-03-02T14:06:16;18.40;1.00
429;DHT22;201;48.758;9.290;2024-03-02T14:08:41;18.30;1.00
429;DHT22;201;48.758;9.290;2024-03-02T14:11:10;18.30;1.00
429;DHT22;201;48.758;9.290;2024-03-02T14:13:40;18.10;1.00
429;DHT22;201;48.758;9.290;2024-03-02T14:16:06;18.00;1.00
429;DHT22;201;48.758;9.290;2024-03-02T14:18:32;18.10;1.00
429;DHT22;201;48.758;9.290;2024-03-02T14:20:57;17.90;1.00
429;DHT22;201;48.758;9.290;2024-03-02T14:23:23;17.40;1.00
429;DHT22;201;48.758;9.290;2024-03-02T14:25:48;17.20;1.00
429;DHT22;201;48.758;9.290;2024-03-02T14:28:14;17.10;1.00
429;DHT22;201;48.758;9.290;2024-03-02T14:30:41;16.80;1.00
429;DHT22;201;48.758;9.290;2024-03-02T14:33:07;16.70;1.00
429;DHT22;201;48.758;9.290;2024-03-02T14:35:33;16.50;1.00
429;DHT22;201;48.758;9.290;2024-03-02T14:37:58;16.60;1.00
429;DHT22;201;48.758;9.290;2024-03-02T14:40:24;16.50;1.00
429;DHT22;201;48.758;9.290;2024-03-02T14:42:52;16.30;1.00
429;DHT22;201;48.758;9.290;2024-03-02T14:45:18;16.10;1.00
429;DHT22;201;48.758;9.290;2024-03-02T14:47:43;16.10;1.00
429;DHT22;201;48.758;9.290;2024-03-02T14:50:09;16.20;1.00
429;DHT22;201;48.758;9.290;2024-03-02T14:52:35;16.20;1.00
429;DHT22;201;48.758;9.290;2024-03-02T14:55:01;16.20;1.00
429;DHT22;201;48.758;9.290;2024-03-02T14:57:28;16.00;1.00
429;DHT22;201;48.758;9.290;2024-03-02T14:59:53;15.90;1.00
429;DHT22;201;48.758;9.290;2024-03-02T15:02:20;15.90;1.00
429;DHT22;201;48.758;9.290;2024-03-02T15:04:45;15.80;1.00
429;DHT22;201;48.758;9.290;2024-03-02T15:07:13;15.80;1.00
429;DHT22;201;48.758;9.290;2024-03-02T15:09:38;15.70;1.00
429;DHT22;201;48.758;9.290;2024-03-02T15:12:04;15.60;1.00
429;DHT22;201;48.758;9.290;2024-03-02T15:14:31;15.60;1.00
429;DHT22;201;48.758;9.290;2024-03-02T15:16:57;15.60;1.00
429;DHT22;201;48.758;9.290;2024-03-02T15:19:23;15.60;1.00
429;DHT22;201;48.758;9.290;2024-03-02T15:21:48;15.50;1.00
429;DHT22;201;48.758;9.290;2024-03-02T15:24:14;15.40;1.00
429;DHT22;201;48.758;9.290;2024-03-02T15:26:39;15.30;1.00
429;DHT22;201;48.758;9.290;2024-03-02T15:29:05;15.20;1.00
429;DHT22;201;48.758;9.290;2024-03-02T15:31:30;14.90;1.00
429;DHT22;201;48.758;9.290;2024-03-02T15:33:55;14.80;1.00
429;DHT22;201;48.758;9.290;2024-03-02T15:36:22;14.60;1.00
429;DHT22;201;48.758;9.290;2024-03-02T15:38:48;14.40;1.00
429;DHT22;201;48.758;9.290;2024-03-02T15:41:13;14.30;1.00
429;DHT22;201;48.758;9.290;2024-03-02T15:43:39;14.10;1.00
429;DHT22;201;48.758;9.290;2024-03-02T15:46:06;14.00;1.00
429;DHT22;201;48.758;9.290;2024-03-02T15:48:32;13.90;1.00
429;DHT22;201;48.758;9.290;2024-03-02T15:50:58;13.80;1.00
429;DHT22;201;48.758;9.290;2024-03-02T15:53:23;13.70;1.00
429;DHT22;201;48.758;9.290;2024-03-02T15:55:49;13.60;1.00
429;DHT22;201;48.758;9.290;2024-03-02T15:58:15;13.50;1.00
429;DHT22;201;48.758;9.290;2024-03-02T16:00:41;13.40;1.00
429;DHT22;201;48.758;9.290;2024-03-02T16:03:06;13.30;1.00
429;DHT22;201;48.758;9.290;2024-03-02T16:05:32;13.20;1.00
429;DHT22;201;48.758;9.290;2024-03-02T16:07:57;13.20;1.00
429;DHT22;201;48.758;9.290;2024-03-02T16:10:23;13.10;1.00
429;DHT22;201;48.758;9.290;2024-03-02T16:12:49;13.00;1.00
429;DHT22;201;48.758;9.290;2024-03-02T16:15:15;13.00;1.00
429;DHT22;201;48.758;9.290;2024-03-02T16:17:40;13.00;1.00
429;DHT22;201;48.758;9.290;2024-03-02T16:20:07;12.90;1.00
429;DHT22;201;48.758;9.290;2024-03-02T16:22:35;12.80;1.00
429;DHT22;201;48.758;9.290;2024-03-02T16:25:01;12.80;1.00
429;DHT22;201;48.758;9.290;2024-03-02T16:27:26;12.70;1.00
429;DHT22;201;48.758;9.290;2024-03-02T16:29:53;12.70;1.00
429;DHT22;201;48.758;9.290;2024-03-02T16:32:20;12.60;1.00
429;DHT22;201;48.758;9.290;2024-03-02T16:34:45;12.60;1.00
429;DHT22;201;48.758;9.290;2024-03-02T16:37:11;12.60;1.00
429;DHT22;201;48.758;9.290;2024-03-02T16:39:37;12.50;1.00
429;DHT22;201;48.758;9.290;2024-03-02T16:42:02;12.50;1.00
429;DHT22;201;48.758;9.290;2024-03-02T16:44:29;12.50;1.00
429;DHT22;201;48.758;9.290;2024-03-02T16:46:54;12.40;1.00
429;DHT22;201;48.758;9.290;2024-03-02T16:49:20;12.40;1.00
429;DHT22;201;48.758;9.290;2024-03-02T16:51:45;12.30;1.00
429;DHT22;201;48.758;9.290;2024-03-02T16:54:12;12.20;1.00
429;DHT22;201;48.758;9.290;2024-03-02T16:56:38;12.30;1.00
429;DHT22;201;48.758;9.290;2024-03-02T16:59:04;12.20;1.00
429;DHT22;201;48.758;9.290;2024-03-02T17:01:30;12.20;1.00